Terminal Aerodrome Forecast
Issued by NWS Bismarck, ND

Home | Current Version | Previous Version | Graphics & Text | Print | Product List | Glossary On
Versions: 1 2 3 4 5 6 7 8 9 10 11 12 13 14 15 16 17 18 19 20 21 22 23 24 25 26 27 28
396
FTUS43 KBIS 052205 AAB
TAFBIS
TAF AMD
KBIS 052205Z 0522/0618 32020G30KT 2SM -SN OVC015
     FM052300 30024G36KT 1/2SM -SN BLSN OVC010
     FM060600 31026G41KT 1/4SM -SN BLSN OVC015=

USA.gov is the U.S. government's official web portal to all federal, state and local government web resources and services.